Time;durP1;ratioP1;P1;durP2;ratioP2;P2;SDS_P1;SDS_P2;PMS_P1;PMS_P2;Temp;Humidity;BMP_temperature;BMP_pressure;BME280_temperature;BME280_humidity;BME280_pressure;Samples;Min_cycle;Max_cycle;Signal;HPM_P1;HPM_P2
2021/05/20 00:02:12;;;;;;;26.15;17.80;;;10.00;99.90;;;;;;5047696;28;20398;-47
2021/05/20 00:04:37;;;;;;;27.02;20.05;;;10.00;99.90;;;;;;5045405;28;20025;-46
2021/05/20 00:07:03;;;;;;;23.42;18.30;;;10.00;99.90;;;;;;5045200;28;20048;-47
2021/05/20 00:09:29;;;;;;;23.27;17.52;;;10.00;99.90;;;;;;5046785;28;20071;-46
2021/05/20 00:11:56;;;;;;;25.38;18.13;;;10.00;99.90;;;;;;5047622;28;20029;-48
2021/05/20 00:14:22;;;;;;;26.52;18.55;;;10.00;99.90;;;;;;5047659;28;20029;-46
2021/05/20 00:16:48;;;;;;;28.63;19.45;;;10.00;99.90;;;;;;5048165;28;20025;-47
2021/05/20 00:19:13;;;;;;;24.15;17.45;;;10.00;99.90;;;;;;5035382;28;20088;-46
2021/05/20 00:21:39;;;;;;;24.42;18.52;;;9.90;99.90;;;;;;5027884;28;20036;-53
2021/05/20 00:24:05;;;;;;;26.30;18.15;;;9.90;99.90;;;;;;5028373;28;20029;-49
2021/05/20 00:26:32;;;;;;;27.15;19.40;;;9.90;99.90;;;;;;5027915;28;20112;-48
2021/05/20 00:28:58;;;;;;;28.63;19.27;;;9.90;99.90;;;;;;5027553;28;20080;-46
2021/05/20 00:31:23;;;;;;;27.58;20.55;;;9.90;99.90;;;;;;5027860;28;20033;-49
2021/05/20 00:33:49;;;;;;;27.23;19.45;;;9.90;99.90;;;;;;5027500;28;20056;-49
2021/05/20 00:36:14;;;;;;;26.92;18.77;;;9.90;99.90;;;;;;5028263;28;20033;-47
2021/05/20 00:38:40;;;;;;;26.67;19.80;;;9.90;99.90;;;;;;5025431;28;20105;-46
2021/05/20 00:41:06;;;;;;;29.98;19.95;;;10.00;99.90;;;;;;5026107;28;20116;-47
2021/05/20 00:43:31;;;;;;;27.23;19.52;;;9.90;99.90;;;;;;5027547;28;20398;-47
2021/05/20 00:45:57;;;;;;;27.98;19.40;;;9.90;99.90;;;;;;5027941;28;20033;-49
2021/05/20 00:48:23;;;;;;;29.65;21.73;;;9.90;99.90;;;;;;5026909;28;20096;-47
2021/05/20 00:50:48;;;;;;;27.17;18.77;;;9.90;99.90;;;;;;5027415;28;20037;-48
2021/05/20 00:53:15;;;;;;;30.17;20.90;;;9.90;99.90;;;;;;5028290;28;20479;-46
2021/05/20 00:55:42;;;;;;;27.30;20.45;;;9.90;99.90;;;;;;5027961;28;20079;-48
2021/05/20 00:58:09;;;;;;;26.95;18.15;;;9.90;99.90;;;;;;5026451;28;20025;-50
2021/05/20 01:00:35;;;;;;;31.10;20.65;;;10.00;99.90;;;;;;5027531;28;20427;-46
2021/05/20 01:03:01;;;;;;;28.80;19.33;;;10.00;99.90;;;;;;5027733;28;20063;-45
2021/05/20 01:05:27;;;;;;;28.60;21.08;;;10.00;99.90;;;;;;5027282;28;20033;-48
2021/05/20 01:07:53;;;;;;;29.42;19.52;;;10.00;99.90;;;;;;5026071;28;20033;-47
2021/05/20 01:10:19;;;;;;;29.33;20.52;;;10.00;99.90;;;;;;5025908;28;20484;-47
2021/05/20 01:12:45;;;;;;;26.00;18.67;;;10.00;99.90;;;;;;5027182;28;20064;-49
2021/05/20 01:15:27;;;;;;;25.45;19.23;;;10.00;99.90;;;;;;5027438;28;20032;-46
2021/05/20 01:17:57;;;;;;;26.48;19.73;;;10.00;99.90;;;;;;5026527;28;20414;-47
2021/05/20 01:20:28;;;;;;;29.38;21.02;;;10.00;99.90;;;;;;5026390;28;20399;-47
2021/05/20 01:23:06;;;;;;;27.10;17.08;;;10.00;99.90;;;;;;5027485;28;20475;-46
2021/05/20 01:25:32;;;;;;;29.77;19.67;;;10.00;99.90;;;;;;5027296;28;20025;-46
2021/05/20 01:28:03;;;;;;;27.85;19.27;;;10.00;99.90;;;;;;5026724;28;20033;-46
2021/05/20 01:30:32;;;;;;;28.10;21.00;;;10.00;99.90;;;;;;5027260;28;20061;-48
2021/05/20 01:32:58;;;;;;;25.40;19.15;;;10.00;99.90;;;;;;5027504;28;20072;-46
2021/05/20 01:35:23;;;;;;;27.55;19.60;;;10.00;99.90;;;;;;5025618;28;20053;-44
2021/05/20 01:37:50;;;;;;;29.20;21.55;;;10.00;99.90;;;;;;5026599;28;20037;-47
2021/05/20 01:40:15;;;;;;;29.77;21.35;;;10.00;99.90;;;;;;5025942;28;20033;-47
2021/05/20 01:42:41;;;;;;;29.73;20.75;;;10.00;99.90;;;;;;5027245;28;20407;-46
2021/05/20 01:45:08;;;;;;;28.30;20.45;;;10.00;99.90;;;;;;5026459;28;20188;-47
2021/05/20 01:47:34;;;;;;;30.17;22.40;;;10.00;99.90;;;;;;5026294;28;20540;-45
2021/05/20 01:50:00;;;;;;;29.52;20.58;;;10.00;99.90;;;;;;5026781;28;20069;-47
2021/05/20 01:52:26;;;;;;;31.08;20.55;;;10.00;99.90;;;;;;5027016;28;20057;-47
2021/05/20 01:54:51;;;;;;;28.00;19.63;;;9.90;99.90;;;;;;5027313;28;20053;-46
2021/05/20 01:57:17;;;;;;;30.20;21.00;;;9.90;99.90;;;;;;5027103;28;20029;-46
2021/05/20 01:59:42;;;;;;;26.48;19.75;;;9.90;99.90;;;;;;5026918;28;20026;-49
2021/05/20 02:02:08;;;;;;;30.75;20.88;;;9.80;99.90;;;;;;5027192;28;20156;-46
2021/05/20 02:04:33;;;;;;;30.90;20.60;;;9.90;99.90;;;;;;5026680;28;20036;-46
2021/05/20 02:06:59;;;;;;;28.75;22.00;;;9.80;99.90;;;;;;5027033;28;20029;-46
2021/05/20 02:09:25;;;;;;;28.48;20.40;;;9.80;99.90;;;;;;5025723;28;20453;-47
2021/05/20 02:11:50;;;;;;;30.40;21.13;;;9.70;99.90;;;;;;5030554;28;20084;-45
2021/05/20 02:14:16;;;;;;;28.58;21.52;;;9.70;99.90;;;;;;5030566;28;20083;-45
2021/05/20 02:16:42;;;;;;;29.05;21.50;;;9.70;99.90;;;;;;5030199;28;20025;-45
2021/05/20 02:19:09;;;;;;;30.80;20.88;;;9.60;99.90;;;;;;5029948;28;20044;-46
2021/05/20 02:21:34;;;;;;;30.40;22.08;;;9.60;99.90;;;;;;5030545;28;20060;-45
2021/05/20 02:24:00;;;;;;;29.70;22.33;;;9.60;99.90;;;;;;5030222;28;20117;-45
2021/05/20 02:26:26;;;;;;;28.55;22.50;;;9.60;99.90;;;;;;5029682;28;20112;-45
2021/05/20 02:28:51;;;;;;;31.95;22.67;;;9.50;99.90;;;;;;5027785;28;20028;-45
2021/05/20 02:31:16;;;;;;;33.28;23.48;;;9.50;99.90;;;;;;5029850;28;20067;-45
2021/05/20 02:33:42;;;;;;;31.60;21.75;;;9.50;99.90;;;;;;5030107;28;20079;-46
2021/05/20 02:36:07;;;;;;;32.45;21.65;;;9.40;99.90;;;;;;5029759;28;20025;-46
2021/05/20 02:38:33;;;;;;;32.60;22.70;;;9.40;99.90;;;;;;5029610;28;20108;-46
2021/05/20 02:40:59;;;;;;;35.33;23.80;;;9.40;99.90;;;;;;5030096;28;20034;-46
2021/05/20 02:43:25;;;;;;;35.05;22.63;;;9.40;99.90;;;;;;5029821;28;20045;-45
2021/05/20 02:45:51;;;;;;;37.33;23.52;;;9.30;99.90;;;;;;5029425;28;20048;-45
2021/05/20 02:48:17;;;;;;;32.20;22.73;;;9.30;99.90;;;;;;5029591;28;20459;-45
2021/05/20 02:50:42;;;;;;;35.45;23.88;;;9.20;99.90;;;;;;5029116;28;20120;-44
2021/05/20 02:53:08;;;;;;;35.20;24.23;;;9.20;99.90;;;;;;5029795;28;20514;-45
2021/05/20 02:55:33;;;;;;;37.05;24.15;;;9.20;99.90;;;;;;5029600;28;20108;-46
2021/05/20 02:58:01;;;;;;;35.30;23.85;;;9.20;99.90;;;;;;5029292;28;20053;-47
2021/05/20 03:00:32;;;;;;;39.05;25.60;;;9.10;99.90;;;;;;5029907;28;20018;-45
2021/05/20 03:02:58;;;;;;;31.17;23.08;;;9.10;99.90;;;;;;5029612;28;20523;-45
2021/05/20 03:05:23;;;;;;;41.30;24.08;;;9.10;99.90;;;;;;5028796;28;20108;-45
2021/05/20 03:07:49;;;;;;;38.20;25.70;;;9.10;99.90;;;;;;5027649;28;20087;-47
2021/05/20 03:10:15;;;;;;;34.05;23.33;;;9.10;99.90;;;;;;5028589;28;20087;-46
2021/05/20 03:12:41;;;;;;;37.65;24.52;;;9.10;99.90;;;;;;5028926;28;20026;-45
2021/05/20 03:15:07;;;;;;;35.70;23.67;;;9.00;99.90;;;;;;5029023;28;20036;-47
2021/05/20 03:17:33;;;;;;;41.10;25.10;;;9.00;99.90;;;;;;5028751;28;20029;-46
2021/05/20 03:19:59;;;;;;;40.00;24.50;;;9.00;99.90;;;;;;5029256;28;20096;-45
2021/05/20 03:22:25;;;;;;;34.67;24.73;;;9.00;99.90;;;;;;5028872;28;20032;-46
2021/05/20 03:24:50;;;;;;;34.03;21.75;;;9.10;99.90;;;;;;5029108;28;20160;-46
2021/05/20 03:27:19;;;;;;;37.42;24.45;;;9.00;99.90;;;;;;5028508;28;20034;-48
2021/05/20 03:29:45;;;;;;;35.03;24.85;;;9.00;99.90;;;;;;5029142;28;20076;-46
2021/05/20 03:32:10;;;;;;;38.35;25.08;;;9.00;99.90;;;;;;5027560;28;20403;-46
2021/05/20 03:34:36;;;;;;;36.70;25.45;;;9.10;99.90;;;;;;5029264;28;20061;-46
2021/05/20 03:37:03;;;;;;;32.88;22.42;;;9.10;99.90;;;;;;5027462;28;20022;-46
2021/05/20 03:39:30;;;;;;;37.70;25.90;;;9.10;99.90;;;;;;5027879;28;20049;-46
2021/05/20 03:41:56;;;;;;;37.58;24.55;;;9.10;99.90;;;;;;5028484;28;20082;-46
2021/05/20 03:44:21;;;;;;;36.38;25.08;;;9.10;99.90;;;;;;5028920;28;20489;-46
2021/05/20 03:46:47;;;;;;;33.42;23.92;;;9.10;99.90;;;;;;5028377;28;20033;-46
2021/05/20 03:49:13;;;;;;;40.42;27.13;;;9.20;99.90;;;;;;5028039;28;20037;-46
2021/05/20 03:51:39;;;;;;;41.08;26.05;;;9.20;99.90;;;;;;5028468;28;20072;-46
2021/05/20 03:54:05;;;;;;;38.65;26.45;;;9.20;99.90;;;;;;5028636;28;20068;-46
2021/05/20 03:56:30;;;;;;;45.13;27.75;;;9.20;99.90;;;;;;5028273;28;20032;-46
2021/05/20 03:58:56;;;;;;;44.90;29.55;;;9.20;99.90;;;;;;5028369;28;20030;-45
2021/05/20 04:01:21;;;;;;;43.60;28.20;;;9.10;99.90;;;;;;5027959;28;20044;-44
2021/05/20 04:03:47;;;;;;;45.90;29.88;;;9.20;99.90;;;;;;5028536;28;20025;-44
2021/05/20 04:06:12;;;;;;;46.78;29.88;;;9.10;99.90;;;;;;5028208;28;20714;-45
2021/05/20 04:08:38;;;;;;;53.03;30.65;;;9.10;99.90;;;;;;5026080;28;20026;-47
2021/05/20 04:11:04;;;;;;;46.03;29.75;;;9.10;99.90;;;;;;5028123;28;20034;-47
2021/05/20 04:13:35;;;;;;;52.50;32.42;;;9.00;99.90;;;;;;5027991;28;20536;-45
2021/05/20 04:16:02;;;;;;;49.80;30.88;;;9.00;99.90;;;;;;5028209;28;20287;-48
2021/05/20 04:18:27;;;;;;;51.22;31.40;;;9.00;99.90;;;;;;5027565;28;20033;-46
2021/05/20 04:20:54;;;;;;;49.88;31.92;;;9.00;99.90;;;;;;5026165;28;20033;-45
2021/05/20 04:23:20;;;;;;;50.65;31.02;;;9.00;99.90;;;;;;5028276;28;20025;-46
2021/05/20 04:25:46;;;;;;;57.78;33.00;;;9.00;99.90;;;;;;5027615;28;20044;-46
2021/05/20 04:28:13;;;;;;;54.85;32.08;;;9.00;99.90;;;;;;5027298;28;20391;-49
2021/05/20 04:30:39;;;;;;;59.97;33.45;;;9.00;99.90;;;;;;5027852;28;20025;-48
2021/05/20 04:33:06;;;;;;;56.35;33.35;;;9.00;99.90;;;;;;5029686;28;20079;-46
2021/05/20 04:35:33;;;;;;;51.85;31.60;;;9.00;99.90;;;;;;5037761;28;20020;-49
2021/05/20 04:37:59;;;;;;;63.58;33.58;;;9.00;99.90;;;;;;5035338;28;20386;-46
2021/05/20 04:40:25;;;;;;;67.32;32.78;;;9.00;99.90;;;;;;5036887;28;20026;-46
2021/05/20 04:42:52;;;;;;;59.58;33.90;;;9.00;99.90;;;;;;5037407;28;20100;-45
2021/05/20 04:45:19;;;;;;;62.25;33.45;;;9.00;99.90;;;;;;5037111;28;20045;-46
2021/05/20 04:47:45;;;;;;;56.45;31.85;;;9.10;99.90;;;;;;5035046;28;20028;-46
2021/05/20 04:50:12;;;;;;;49.05;28.02;;;9.10;99.90;;;;;;5047413;28;20029;-46
2021/05/20 04:52:39;;;;;;;50.95;28.35;;;9.10;99.90;;;;;;5046210;28;20045;-46
2021/05/20 04:55:06;;;;;;;44.92;26.63;;;9.10;99.90;;;;;;5037454;28;20754;-46
2021/05/20 04:57:31;;;;;;;45.75;28.08;;;9.20;99.90;;;;;;5026800;28;20037;-46
2021/05/20 04:59:57;;;;;;;52.92;30.52;;;9.30;99.90;;;;;;5027554;28;20033;-46
2021/05/20 05:02:22;;;;;;;49.08;27.08;;;9.30;99.90;;;;;;5026914;28;20475;-46
2021/05/20 05:04:48;;;;;;;48.67;27.08;;;9.30;99.90;;;;;;5026268;28;20045;-46
2021/05/20 05:07:13;;;;;;;39.85;26.33;;;9.40;99.90;;;;;;5025701;28;20042;-46
2021/05/20 05:09:39;;;;;;;45.97;26.45;;;9.50;99.90;;;;;;5028690;28;20029;-46
2021/05/20 05:12:05;;;;;;;44.10;26.98;;;9.60;99.90;;;;;;5033487;28;20029;-46
2021/05/20 05:14:30;;;;;;;41.17;26.52;;;9.60;99.90;;;;;;5036848;28;20076;-47
2021/05/20 05:16:57;;;;;;;40.13;26.08;;;9.70;99.90;;;;;;5030124;28;20037;-45
2021/05/20 05:19:22;;;;;;;40.75;25.38;;;9.70;99.90;;;;;;5026921;28;20059;-46
2021/05/20 05:21:48;;;;;;;41.38;27.13;;;9.80;99.90;;;;;;5037769;28;20056;-46
2021/05/20 05:24:13;;;;;;;38.38;24.45;;;9.80;99.90;;;;;;5047980;28;20782;-46
2021/05/20 05:26:40;;;;;;;40.92;26.00;;;9.80;99.90;;;;;;5043838;28;20524;-46
2021/05/20 05:29:06;;;;;;;39.03;24.73;;;9.90;99.90;;;;;;5043755;28;20477;-45
2021/05/20 05:31:32;;;;;;;38.45;24.77;;;9.90;99.90;;;;;;5027280;28;20053;-46
2021/05/20 05:33:59;;;;;;;33.90;21.98;;;9.90;99.90;;;;;;5041721;28;20062;-45
2021/05/20 05:36:25;;;;;;;39.47;24.98;;;10.00;99.90;;;;;;5051091;28;20462;-45
2021/05/20 05:38:51;;;;;;;37.03;24.27;;;10.00;99.90;;;;;;5066742;28;20055;-48
2021/05/20 05:41:16;;;;;;;37.40;23.63;;;10.20;99.90;;;;;;5066521;28;20043;-48
2021/05/20 05:43:42;;;;;;;35.45;23.38;;;10.30;99.90;;;;;;5067648;28;20025;-45
2021/05/20 05:46:08;;;;;;;34.53;23.90;;;10.30;99.90;;;;;;5070531;28;20032;-46
2021/05/20 05:48:33;;;;;;;39.70;25.75;;;10.40;99.90;;;;;;5055721;28;20057;-46
2021/05/20 05:50:58;;;;;;;43.42;27.40;;;10.40;99.90;;;;;;5041949;28;20368;-46
2021/05/20 05:53:24;;;;;;;40.25;26.90;;;10.40;99.90;;;;;;5041141;28;20025;-46
2021/05/20 05:55:51;;;;;;;40.70;26.63;;;10.40;99.90;;;;;;5045852;28;20017;-46
2021/05/20 05:58:18;;;;;;;36.33;25.17;;;10.50;99.90;;;;;;5046401;28;20444;-46
2021/05/20 06:00:44;;;;;;;34.47;24.30;;;10.50;99.90;;;;;;5054343;28;20656;-46
2021/05/20 06:03:11;;;;;;;36.45;24.08;;;10.50;99.90;;;;;;5045894;28;20029;-46
2021/05/20 06:05:36;;;;;;;38.28;24.88;;;10.50;99.90;;;;;;5030947;28;20025;-45
2021/05/20 06:08:02;;;;;;;35.17;22.77;;;10.40;99.90;;;;;;5030138;28;20394;-46
2021/05/20 06:10:27;;;;;;;37.38;24.20;;;10.40;99.90;;;;;;5030152;28;20053;-46
2021/05/20 06:12:53;;;;;;;36.97;22.85;;;10.40;99.90;;;;;;5029153;28;20057;-47
2021/05/20 06:15:18;;;;;;;33.72;23.02;;;10.50;99.90;;;;;;5030492;28;20064;-46
2021/05/20 06:17:44;;;;;;;31.55;22.00;;;10.60;99.90;;;;;;5029720;28;20084;-46
2021/05/20 06:20:10;;;;;;;34.38;22.08;;;10.80;99.90;;;;;;5030216;28;20530;-47
2021/05/20 06:22:36;;;;;;;35.85;22.33;;;10.90;99.90;;;;;;5029695;28;20440;-47
2021/05/20 06:25:03;;;;;;;35.83;22.13;;;11.00;99.90;;;;;;5030780;28;20286;-50
2021/05/20 06:27:28;;;;;;;29.83;20.92;;;11.10;99.90;;;;;;5029804;28;20514;-48
2021/05/20 06:29:55;;;;;;;33.17;21.48;;;11.20;99.90;;;;;;5030237;28;20033;-47
2021/05/20 06:32:20;;;;;;;30.92;21.00;;;11.30;99.90;;;;;;5029808;28;20080;-47
2021/05/20 06:34:47;;;;;;;31.58;20.83;;;11.30;99.90;;;;;;5041762;28;20434;-48
2021/05/20 06:37:14;;;;;;;32.15;21.08;;;11.30;99.90;;;;;;5044825;28;20060;-47
2021/05/20 06:39:40;;;;;;;30.20;20.10;;;11.30;99.90;;;;;;5034313;28;20029;-46
2021/05/20 06:42:10;;;;;;;27.10;17.48;;;11.30;99.90;;;;;;5037268;28;20037;-48
2021/05/20 06:44:39;;;;;;;27.70;18.48;;;11.50;99.90;;;;;;5040689;28;20704;-48
2021/05/20 06:47:05;;;;;;;24.35;17.27;;;11.60;99.90;;;;;;5037955;28;20026;-49
2021/05/20 06:49:31;;;;;;;20.65;14.93;;;11.70;99.90;;;;;;5034552;28;20056;-48
2021/05/20 06:51:57;;;;;;;20.95;13.75;;;11.70;99.90;;;;;;5029657;28;20060;-48
2021/05/20 06:54:22;;;;;;;18.65;13.52;;;11.60;99.90;;;;;;5030046;28;20360;-48
2021/05/20 06:56:55;;;;;;;17.08;12.45;;;11.50;99.90;;;;;;5029508;28;20040;-49
2021/05/20 07:02:05;;;;;;;15.30;11.43;;;11.40;99.90;;;;;;5029984;28;20283;-46
2021/05/20 07:04:31;;;;;;;20.52;13.45;;;11.50;99.90;;;;;;5029689;28;20495;-46
2021/05/20 07:07:01;;;;;;;16.20;11.70;;;11.60;99.90;;;;;;5028672;28;20033;-47
2021/05/20 07:09:28;;;;;;;22.00;15.82;;;11.80;99.90;;;;;;5028649;28;20026;-46
2021/05/20 07:11:55;;;;;;;25.83;15.73;;;11.70;99.90;;;;;;5027949;28;20029;-46
2021/05/20 07:14:21;;;;;;;21.30;14.57;;;11.80;99.90;;;;;;5029154;28;20036;-46
2021/05/20 07:16:46;;;;;;;25.23;13.90;;;11.80;99.90;;;;;;5028705;28;20018;-46
2021/05/20 07:19:12;;;;;;;18.90;14.45;;;11.80;99.90;;;;;;5028765;28;20033;-46
2021/05/20 07:21:37;;;;;;;16.73;12.30;;;11.90;99.90;;;;;;5029326;28;20471;-47
2021/05/20 07:24:03;;;;;;;19.92;12.13;;;11.90;99.90;;;;;;5028961;28;20086;-46
2021/05/20 07:26:28;;;;;;;15.70;11.68;;;12.00;99.90;;;;;;5029225;28;20040;-49
2021/05/20 07:28:54;;;;;;;12.45;10.32;;;12.00;99.90;;;;;;5028845;28;20034;-47
2021/05/20 07:31:19;;;;;;;13.13;10.32;;;12.20;99.90;;;;;;5028997;28;20493;-49
2021/05/20 07:33:45;;;;;;;14.40;10.05;;;12.20;99.90;;;;;;5028462;28;20025;-50
2021/05/20 07:36:11;;;;;;;13.60;10.48;;;12.40;99.90;;;;;;5029159;28;20384;-48
2021/05/20 07:38:39;;;;;;;12.63;9.80;;;12.60;99.90;;;;;;5028572;28;20022;-47
2021/05/20 07:41:04;;;;;;;16.75;9.35;;;12.80;99.90;;;;;;5028871;28;20029;-47
2021/05/20 07:43:30;;;;;;;15.75;10.63;;;12.90;99.90;;;;;;5027600;28;20036;-47
2021/05/20 07:45:55;;;;;;;13.00;10.57;;;13.10;99.90;;;;;;5028762;28;20037;-47
2021/05/20 07:48:22;;;;;;;14.77;11.43;;;13.30;99.90;;;;;;5027712;28;20109;-48
2021/05/20 07:50:47;;;;;;;15.70;10.68;;;13.20;99.90;;;;;;5045473;28;20029;-48
2021/05/20 07:53:13;;;;;;;11.52;8.77;;;13.20;99.90;;;;;;5041887;28;20025;-49
2021/05/20 07:55:38;;;;;;;13.23;8.57;;;13.40;99.90;;;;;;5051052;28;20078;-50
2021/05/20 07:58:07;;;;;;;12.40;8.60;;;13.80;99.90;;;;;;5068733;28;20078;-51
2021/05/20 08:00:34;;;;;;;11.05;7.95;;;13.70;99.90;;;;;;5069526;28;20020;-50
2021/05/20 08:03:20;;;;;;;10.68;7.95;;;13.70;99.90;;;;;;5069143;28;20028;-50
2021/05/20 08:06:00;;;;;;;11.40;6.90;;;13.50;99.90;;;;;;5070135;28;20024;-51
2021/05/20 08:08:36;;;;;;;9.27;7.32;;;13.80;99.90;;;;;;5068488;28;20024;-48
2021/05/20 08:11:09;;;;;;;8.70;6.60;;;14.00;99.90;;;;;;5069597;28;20025;-54
2021/05/20 08:13:35;;;;;;;11.40;6.55;;;14.40;99.90;;;;;;5069171;28;20028;-49
2021/05/20 08:16:02;;;;;;;11.45;7.80;;;15.00;99.90;;;;;;5069150;28;20182;-49
2021/05/20 08:18:29;;;;;;;6.63;5.90;;;15.00;99.90;;;;;;5068214;28;20091;-49
2021/05/20 08:20:55;;;;;;;7.38;5.85;;;15.50;99.90;;;;;;5062822;28;20035;-51
2021/05/20 08:23:21;;;;;;;6.70;5.10;;;16.10;99.90;;;;;;5036995;28;20045;-51
2021/05/20 08:25:46;;;;;;;6.00;4.10;;;17.10;97.10;;;;;;5029148;28;20029;-50
2021/05/20 08:28:12;;;;;;;4.68;4.18;;;17.80;94.00;;;;;;5028544;28;20029;-51
2021/05/20 08:30:38;;;;;;;4.82;3.45;;;18.80;90.30;;;;;;5039143;28;20610;-51
2021/05/20 08:33:05;;;;;;;4.03;3.63;;;19.40;84.90;;;;;;5036793;28;20037;-55
2021/05/20 08:35:31;;;;;;;4.40;4.00;;;20.10;79.60;;;;;;5037101;28;20036;-51
2021/05/20 08:37:57;;;;;;;7.85;5.63;;;21.10;69.50;;;;;;5048017;28;20717;-52
2021/05/20 08:40:22;;;;;;;5.32;4.22;;;20.80;66.50;;;;;;5047477;28;20045;-50
2021/05/20 08:42:48;;;;;;;5.93;3.63;;;21.10;65.10;;;;;;5040491;28;20033;-49
2021/05/20 08:45:18;;;;;;;4.85;3.55;;;21.50;63.70;;;;;;5046648;28;20367;-51
2021/05/20 08:47:46;;;;;;;5.70;4.88;;;21.80;62.90;;;;;;5047144;28;20417;-50
2021/05/20 08:50:13;;;;;;;5.90;4.97;;;21.90;61.80;;;;;;5049225;28;20438;-51
2021/05/20 08:52:40;;;;;;;5.95;3.83;;;22.40;58.20;;;;;;5039782;28;20091;-52
2021/05/20 08:55:08;;;;;;;5.93;3.08;;;23.30;56.70;;;;;;5048841;28;20083;-51
2021/05/20 08:57:34;;;;;;;4.35;3.00;;;22.40;55.20;;;;;;5046693;28;20040;-50
2021/05/20 09:00:02;;;;;;;5.18;3.70;;;21.80;58.30;;;;;;5046959;28;20470;-51
2021/05/20 09:02:29;;;;;;;5.85;4.15;;;22.30;56.90;;;;;;5037967;28;20067;-50
2021/05/20 09:05:11;;;;;;;6.55;5.32;;;22.20;57.70;;;;;;5041481;28;20024;-51
2021/05/20 09:07:41;;;;;;;6.38;4.82;;;22.50;56.40;;;;;;5043448;28;20017;-51
2021/05/20 09:10:28;;;;;;;5.97;4.60;;;21.80;58.90;;;;;;5034041;28;20029;-51
2021/05/20 09:13:07;;;;;;;6.57;5.45;;;22.30;59.20;;;;;;5032530;28;20048;-51
2021/05/20 09:15:40;;;;;;;5.72;4.68;;;22.70;55.20;;;;;;5040061;28;20030;-52
2021/05/20 09:18:15;;;;;;;6.22;4.22;;;24.00;54.90;;;;;;5031962;28;20022;-51
2021/05/20 09:20:44;;;;;;;7.82;5.22;;;24.10;51.60;;;;;;5030174;28;20526;-52
2021/05/20 09:23:31;;;;;;;4.13;3.17;;;23.80;50.20;;;;;;5030881;28;20107;-51
2021/05/20 09:26:08;;;;;;;4.80;3.33;;;23.60;51.40;;;;;;5031867;28;20040;-50
2021/05/20 09:28:40;;;;;;;5.35;3.58;;;24.80;51.80;;;;;;5032812;28;20106;-51
2021/05/20 09:31:06;;;;;;;5.60;2.85;;;23.90;50.00;;;;;;5043026;28;20029;-51
2021/05/20 09:33:31;;;;;;;5.38;3.45;;;23.90;51.20;;;;;;5042555;28;20021;-48
2021/05/20 09:35:57;;;;;;;5.60;3.25;;;23.20;51.10;;;;;;5036349;28;20040;-49
2021/05/20 09:38:24;;;;;;;5.75;3.40;;;24.00;51.40;;;;;;5039676;28;20635;-49
2021/05/20 09:41:03;;;;;;;3.47;2.83;;;23.30;51.20;;;;;;5039329;28;20029;-49
2021/05/20 09:43:35;;;;;;;3.88;2.88;;;23.30;53.20;;;;;;5050833;28;20497;-48
2021/05/20 09:46:03;;;;;;;2.78;2.08;;;24.30;49.00;;;;;;5051602;28;20116;-49
2021/05/20 09:48:34;;;;;;;6.25;3.63;;;25.70;50.00;;;;;;5050494;28;20025;-49
2021/05/20 09:51:01;;;;;;;2.97;2.40;;;24.20;47.10;;;;;;5051239;28;20024;-49
2021/05/20 09:53:29;;;;;;;5.18;3.33;;;24.20;48.60;;;;;;5050845;28;20021;-50
2021/05/20 09:56:01;;;;;;;5.85;3.10;;;24.00;50.80;;;;;;5032700;28;20537;-49
2021/05/20 09:58:31;;;;;;;4.15;2.95;;;24.40;48.20;;;;;;5030824;28;20475;-49
2021/05/20 10:00:58;;;;;;;;;;;24.50;46.50;;;;;;5032150;28;20030;-50
2021/05/20 10:03:24;;;;;;;6.68;3.20;;;25.60;46.70;;;;;;5033993;28;19909;-48
2021/05/20 10:05:52;;;;;;;5.60;2.50;;;26.00;46.30;;;;;;5050840;28;20116;-48
2021/05/20 10:08:22;;;;;;;4.05;2.75;;;26.80;44.90;;;;;;5045290;28;20486;-50
2021/05/20 10:10:50;;;;;;;5.03;3.15;;;26.40;43.00;;;;;;5041624;28;20045;-50
2021/05/20 10:13:18;;;;;;;4.10;3.13;;;25.60;44.40;;;;;;5048304;28;20021;-50
2021/05/20 10:15:44;;;;;;;4.05;2.92;;;23.80;46.40;;;;;;5047857;28;20032;-47
2021/05/20 10:18:17;;;;;;;4.53;2.60;;;23.30;48.20;;;;;;5050531;28;20024;-47
2021/05/20 10:20:46;;;;;;;4.38;3.30;;;23.40;49.20;;;;;;5051133;28;20052;-49
2021/05/20 10:23:17;;;;;;;5.65;3.47;;;23.40;49.20;;;;;;5038518;28;20063;-47
2021/05/20 10:25:44;;;;;;;5.18;3.75;;;22.60;49.40;;;;;;5033518;28;20025;-49
2021/05/20 10:28:12;;;;;;;7.68;3.40;;;21.50;51.70;;;;;;5045179;28;20028;-49
2021/05/20 10:30:40;;;;;;;4.45;2.70;;;20.80;52.80;;;;;;5039966;28;20024;-48
2021/05/20 10:33:06;;;;;;;2.88;2.58;;;19.80;53.80;;;;;;5048830;28;20082;-48
2021/05/20 10:35:47;;;;;;;3.47;2.60;;;19.00;55.20;;;;;;5050505;28;20021;-47
2021/05/20 10:38:25;;;;;;;6.20;4.05;;;18.50;57.10;;;;;;5045934;28;20466;-46
2021/05/20 10:41:05;;;;;;;5.03;3.58;;;18.10;58.50;;;;;;5032675;28;20045;-51
2021/05/20 10:43:30;;;;;;;5.60;3.00;;;18.40;58.10;;;;;;5030790;28;20063;-47
2021/05/20 10:46:11;;;;;;;6.65;2.90;;;18.40;58.70;;;;;;5029645;28;20554;-47
2021/05/20 10:48:47;;;;;;;4.75;3.20;;;19.00;58.50;;;;;;5030403;28;20033;-48
2021/05/20 10:51:19;;;;;;;4.15;2.70;;;19.70;57.40;;;;;;5037150;28;20127;-50
2021/05/20 10:53:48;;;;;;;4.82;3.20;;;20.80;54.90;;;;;;5044936;28;20025;-50
2021/05/20 10:56:22;;;;;;;3.90;2.53;;;22.60;52.20;;;;;;5050381;28;20029;-50
2021/05/20 10:58:48;;;;;;;5.45;2.45;;;23.80;47.60;;;;;;5040456;28;20031;-51
2021/05/20 11:01:20;;;;;;;3.35;2.20;;;25.30;49.80;;;;;;5030176;28;20029;-51
2021/05/20 11:03:50;;;;;;;3.78;1.85;;;26.40;44.00;;;;;;5028685;28;20056;-49
2021/05/20 11:06:16;;;;;;;;;;;27.20;46.40;;;;;;5030380;28;20138;-50
2021/05/20 11:08:44;;;;;;;2.85;1.60;;;26.10;46.00;;;;;;5029758;28;19920;-51
2021/05/20 11:11:29;;;;;;;4.32;2.33;;;25.60;45.20;;;;;;5035092;28;20063;-51
2021/05/20 11:13:57;;;;;;;3.70;2.05;;;24.50;45.60;;;;;;5039681;28;20100;-49
2021/05/20 11:16:36;;;;;;;4.30;2.13;;;24.10;48.20;;;;;;5038400;28;20024;-51
2021/05/20 11:19:27;;;;;;;2.90;2.20;;;23.90;46.40;;;;;;5039502;28;20024;-51
2021/05/20 11:21:55;;;;;;;4.68;2.25;;;24.50;48.70;;;;;;5031938;28;20033;-51
2021/05/20 11:24:22;;;;;;;3.55;1.60;;;24.70;46.80;;;;;;5030113;28;20056;-49
2021/05/20 11:26:55;;;;;;;3.75;1.83;;;24.40;46.50;;;;;;5040713;28;20078;-51
2021/05/20 11:29:26;;;;;;;3.15;2.28;;;23.90;47.30;;;;;;5039193;28;20726;-51
2021/05/20 11:32:03;;;;;;;3.28;1.90;;;23.80;48.80;;;;;;5042598;28;20110;-51
2021/05/20 11:34:47;;;;;;;3.10;2.35;;;23.70;49.00;;;;;;5034774;28;20021;-51
2021/05/20 11:37:37;;;;;;;4.15;2.42;;;23.70;47.90;;;;;;5038729;28;20029;-50
2021/05/20 11:40:07;;;;;;;2.30;2.00;;;24.00;47.00;;;;;;5031196;28;20076;-51
2021/05/20 11:42:33;;;;;;;2.72;2.20;;;25.10;47.40;;;;;;5034162;28;20376;-51
2021/05/20 11:45:00;;;;;;;2.05;1.92;;;25.40;47.00;;;;;;5029880;28;20457;-51
2021/05/20 11:47:27;;;;;;;4.68;3.08;;;26.10;44.50;;;;;;5045872;28;20474;-51
2021/05/20 11:49:53;;;;;;;3.53;2.90;;;26.40;45.20;;;;;;5043790;28;20083;-51
2021/05/20 11:52:19;;;;;;;2.90;2.40;;;27.10;45.50;;;;;;5034419;28;20021;-49
2021/05/20 11:54:49;;;;;;;3.10;2.80;;;27.40;38.10;;;;;;5029215;28;20155;-48
2021/05/20 11:57:23;;;;;;;3.00;2.72;;;25.10;40.30;;;;;;5029616;28;20517;-49
2021/05/20 11:59:53;;;;;;;5.75;4.40;;;23.70;44.40;;;;;;5029495;28;20514;-49
2021/05/20 12:02:30;;;;;;;20.98;14.32;;;22.70;45.00;;;;;;5029686;28;20045;-48
2021/05/20 12:05:08;;;;;;;5.57;2.80;;;21.60;48.50;;;;;;5029641;28;20037;-49
2021/05/20 12:07:37;;;;;;;4.53;3.10;;;21.00;49.90;;;;;;5028856;28;20037;-48
2021/05/20 12:10:12;;;;;;;5.38;3.20;;;20.40;51.10;;;;;;5029529;28;20025;-49
2021/05/20 12:12:43;;;;;;;10.13;7.50;;;20.00;53.90;;;;;;5029425;28;20022;-48
2021/05/20 12:15:17;;;;;;;5.45;3.78;;;19.80;55.00;;;;;;5029184;28;20483;-52
2021/05/20 12:17:43;;;;;;;6.97;3.10;;;20.00;53.60;;;;;;5034133;28;20013;-52
2021/05/20 12:20:10;;;;;;;6.18;3.08;;;19.70;57.90;;;;;;5040146;28;20028;-51
2021/05/20 12:22:38;;;;;;;4.28;2.40;;;20.10;54.40;;;;;;5041822;28;20029;-48
2021/05/20 12:25:12;;;;;;;3.08;2.20;;;20.20;54.30;;;;;;5039551;28;20471;-49
2021/05/20 12:27:38;;;;;;;4.63;2.45;;;20.90;50.80;;;;;;5038689;28;20082;-49
2021/05/20 12:30:09;;;;;;;3.13;2.08;;;21.10;52.30;;;;;;5035505;28;20045;-46
2021/05/20 12:32:38;;;;;;;3.03;2.30;;;21.60;51.30;;;;;;5042434;28;20056;-49
2021/05/20 12:35:17;;;;;;;4.22;2.47;;;21.20;50.20;;;;;;5046326;28;20021;-49
2021/05/20 12:37:47;;;;;;;5.22;2.70;;;20.90;51.90;;;;;;5027847;28;20022;-48
2021/05/20 12:40:14;;;;;;;6.43;2.77;;;21.30;52.60;;;;;;5029120;28;20029;-46
2021/05/20 12:42:40;;;;;;;7.40;2.50;;;21.30;50.40;;;;;;5029054;28;20782;-46
2021/05/20 12:45:06;;;;;;;6.28;2.50;;;20.90;52.00;;;;;;5028830;28;20044;-46